Time;durP1;ratioP1;P1;durP2;ratioP2;P2;SDS_P1;SDS_P2;PMS_P1;PMS_P2;Temp;Humidity;BMP_temperature;BMP_pressure;BME280_temperature;BME280_humidity;BME280_pressure;Samples;Min_cycle;Max_cycle;Signal;HPM_P1;HPM_P2
2022/10/09 00:01:39;;;;;;;6.35;2.53;;;;;;;;;;5055411;28;20045;-70
2022/10/09 00:04:05;;;;;;;5.32;2.97;;;;;;;;;;5055001;28;20049;-69
2022/10/09 00:06:33;;;;;;;10.00;3.47;;;;;;;;;;5055994;28;20049;-69
2022/10/09 00:09:00;;;;;;;6.80;3.13;;;;;;;;;;5054782;28;20531;-69
2022/10/09 00:11:27;;;;;;;5.45;2.83;;;;;;;;;;5057099;28;20068;-70
2022/10/09 00:13:54;;;;;;;6.20;3.25;;;;;;;;;;5053522;28;20182;-70
2022/10/09 00:16:21;;;;;;;5.90;3.17;;;;;;;;;;5069799;28;20106;-70
2022/10/09 00:18:47;;;;;;;6.97;2.72;;;;;;;;;;5069958;28;20040;-69
2022/10/09 00:21:24;;;;;;;9.75;2.72;;;;;;;;;;5071704;28;20049;-69
2022/10/09 00:23:51;;;;;;;7.18;3.05;;;;;;;;;;5053771;28;20089;-70
2022/10/09 00:26:17;;;;;;;8.18;4.07;;;;;;;;;;5053815;28;20247;-70
2022/10/09 00:28:43;;;;;;;7.45;3.92;;;;;;;;;;5069237;28;20041;-70
2022/10/09 00:31:10;;;;;;;8.80;3.33;;;;;;;;;;5053068;28;20112;-70
2022/10/09 00:33:36;;;;;;;10.02;3.17;;;;;;;;;;5053003;28;20045;-69
2022/10/09 00:36:07;;;;;;;4.00;2.55;;;;;;;;;;5061080;28;20130;-70
2022/10/09 00:38:33;;;;;;;7.18;3.22;;;;;;;;;;5065208;28;20045;-69
2022/10/09 00:40:59;;;;;;;8.70;3.15;;;;;;;;;;5070649;28;20044;-69
2022/10/09 00:43:39;;;;;;;6.20;3.05;;;;;;;;;;5069291;28;20049;-69
2022/10/09 00:46:05;;;;;;;5.72;2.97;;;;;;;;;;5054358;28;20095;-69
2022/10/09 00:48:32;;;;;;;11.55;3.30;;;;;;;;;;5055068;28;20523;-69
2022/10/09 00:51:00;;;;;;;8.27;2.80;;;;;;;;;;5070197;28;20558;-69
2022/10/09 00:53:28;;;;;;;5.85;2.40;;;;;;;;;;5056332;28;20959;-69
2022/10/09 00:55:54;;;;;;;10.15;3.05;;;;;;;;;;5054360;28;20523;-69
2022/10/09 00:58:21;;;;;;;6.18;3.22;;;;;;;;;;5072287;28;20055;-70
2022/10/09 01:00:47;;;;;;;5.82;2.60;;;;;;;;;;5070998;28;20162;-70
2022/10/09 01:03:13;;;;;;;4.50;2.92;;;;;;;;;;5069068;28;20147;-69
2022/10/09 01:05:42;;;;;;;4.40;2.15;;;;;;;;;;5071363;28;20060;-70
2022/10/09 01:08:20;;;;;;;7.30;2.75;;;;;;;;;;5068727;28;20045;-70
2022/10/09 01:10:53;;;;;;;5.22;2.60;;;;;;;;;;5055163;28;20036;-70
2022/10/09 01:13:33;;;;;;;5.25;2.70;;;;;;;;;;5053405;28;20103;-70
2022/10/09 01:16:06;;;;;;;7.05;2.33;;;;;;;;;;5052160;28;20531;-70
2022/10/09 01:18:36;;;;;;;5.63;2.40;;;;;;;;;;5069320;28;20045;-69
2022/10/09 01:21:14;;;;;;;4.72;2.10;;;;;;;;;;5053726;28;20064;-69
2022/10/09 01:23:44;;;;;;;6.18;2.50;;;;;;;;;;5052716;28;20145;-70
2022/10/09 01:26:16;;;;;;;3.47;2.00;;;;;;;;;;5054805;28;20063;-70
2022/10/09 01:28:42;;;;;;;;;;;;;;;;;;5045421;28;21259;-70
2022/10/09 01:31:09;;;;;;;5.75;3.15;;;;;;;;;;5050080;28;19931;-70
2022/10/09 01:33:35;;;;;;;8.48;2.15;;;;;;;;;;5065921;28;20033;-70
2022/10/09 01:36:02;;;;;;;6.38;2.20;;;;;;;;;;5050951;28;20132;-70
2022/10/09 01:38:29;;;;;;;7.50;2.90;;;;;;;;;;5066559;28;20101;-70
2022/10/09 01:40:55;;;;;;;3.67;1.95;;;;;;;;;;5052714;28;20182;-70
2022/10/09 01:43:21;;;;;;;8.55;3.17;;;;;;;;;;5055918;28;20052;-70
2022/10/09 01:45:48;;;;;;;4.45;2.20;;;;;;;;;;5055401;28;20045;-69
2022/10/09 01:48:23;;;;;;;4.80;1.92;;;;;;;;;;5055326;28;20037;-70
2022/10/09 01:50:52;;;;;;;4.75;1.77;;;;;;;;;;5068817;28;20044;-70
2022/10/09 01:53:19;;;;;;;6.43;2.28;;;;;;;;;;5053088;28;20539;-69
2022/10/09 01:55:45;;;;;;;4.32;2.13;;;;;;;;;;5054488;28;20556;-69
2022/10/09 01:58:20;;;;;;;4.60;2.67;;;;;;;;;;5053709;28;20033;-69
2022/10/09 02:00:57;;;;;;;4.53;2.50;;;;;;;;;;5053389;28;20124;-69
2022/10/09 02:03:24;;;;;;;5.25;1.80;;;;;;;;;;5051463;28;20057;-69
2022/10/09 02:05:52;;;;;;;4.57;1.98;;;;;;;;;;5048499;28;20033;-70
2022/10/09 02:08:20;;;;;;;7.65;2.58;;;;;;;;;;5053561;28;20045;-69
2022/10/09 02:10:48;;;;;;;4.43;2.28;;;;;;;;;;5053614;28;20045;-69
2022/10/09 02:13:14;;;;;;;3.33;1.85;;;;;;;;;;5062283;28;20063;-70
2022/10/09 02:15:46;;;;;;;6.28;1.80;;;;;;;;;;5068804;28;20064;-69
2022/10/09 02:18:12;;;;;;;;;;;;;;;;;;5071422;28;20033;-69
2022/10/09 02:20:41;;;;;;;5.88;1.92;;;;;;;;;;5071375;28;19920;-69
2022/10/09 02:23:08;;;;;;;5.53;2.08;;;;;;;;;;5053913;28;20480;-70
2022/10/09 02:25:34;;;;;;;12.38;2.80;;;;;;;;;;5072528;28;20820;-69
2022/10/09 02:28:01;;;;;;;5.07;2.10;;;;;;;;;;5070217;28;20033;-69
2022/10/09 02:30:29;;;;;;;3.30;2.05;;;;;;;;;;5069169;28;20518;-69
2022/10/09 02:32:55;;;;;;;4.03;2.20;;;;;;;;;;5055611;28;20073;-69
2022/10/09 02:35:21;;;;;;;5.50;1.90;;;;;;;;;;5048701;28;20045;-69
2022/10/09 02:37:48;;;;;;;5.85;2.00;;;;;;;;;;5064011;28;20045;-69
2022/10/09 02:40:14;;;;;;;2.78;1.67;;;;;;;;;;5071222;28;20041;-69
2022/10/09 02:42:40;;;;;;;3.28;1.60;;;;;;;;;;5057131;28;20079;-69
2022/10/09 02:45:07;;;;;;;5.65;1.88;;;;;;;;;;5057505;28;20071;-69
2022/10/09 02:47:33;;;;;;;3.50;2.30;;;;;;;;;;5072271;28;20045;-69
2022/10/09 02:49:59;;;;;;;6.53;3.03;;;;;;;;;;5057331;28;20132;-70
2022/10/09 02:52:25;;;;;;;5.65;2.13;;;;;;;;;;5071197;28;20884;-69
2022/10/09 02:54:51;;;;;;;5.63;3.25;;;;;;;;;;5070589;28;20037;-70
2022/10/09 02:57:17;;;;;;;5.15;1.88;;;;;;;;;;5072953;28;20045;-69
2022/10/09 02:59:44;;;;;;;3.83;1.90;;;;;;;;;;5057646;28;21260;-70
2022/10/09 03:02:10;;;;;;;6.63;2.33;;;;;;;;;;5070435;28;20045;-70
2022/10/09 03:04:36;;;;;;;6.60;2.28;;;;;;;;;;5056011;28;20048;-70
2022/10/09 03:07:02;;;;;;;9.77;2.90;;;;;;;;;;5053580;28;20041;-69
2022/10/09 03:09:28;;;;;;;8.43;2.20;;;;;;;;;;5071307;28;20051;-70
2022/10/09 03:11:54;;;;;;;4.18;2.05;;;;;;;;;;5056874;28;20112;-69
2022/10/09 03:14:20;;;;;;;5.75;3.05;;;;;;;;;;5056348;28;20049;-70
2022/10/09 03:16:46;;;;;;;4.65;2.00;;;;;;;;;;5069684;28;20047;-70
2022/10/09 03:19:12;;;;;;;8.00;2.95;;;;;;;;;;5073280;28;20040;-70
2022/10/09 03:21:38;;;;;;;4.10;2.00;;;;;;;;;;5068070;28;20475;-69
2022/10/09 03:24:05;;;;;;;12.43;3.47;;;;;;;;;;5070807;28;20523;-69
2022/10/09 03:26:32;;;;;;;9.75;3.30;;;;;;;;;;5070471;28;20581;-69
2022/10/09 03:28:58;;;;;;;4.75;2.20;;;;;;;;;;5071502;28;20549;-69
2022/10/09 03:31:25;;;;;;;9.18;2.30;;;;;;;;;;5052625;28;20586;-69
2022/10/09 03:33:51;;;;;;;3.88;2.58;;;;;;;;;;5054821;28;20137;-70
2022/10/09 03:36:17;;;;;;;3.97;2.25;;;;;;;;;;5070714;28;20290;-69
2022/10/09 03:38:44;;;;;;;4.78;2.75;;;;;;;;;;5069193;28;20041;-69
2022/10/09 03:41:10;;;;;;;5.43;2.53;;;;;;;;;;5071254;28;20046;-69
2022/10/09 03:43:36;;;;;;;7.00;2.72;;;;;;;;;;5054853;28;20759;-70
2022/10/09 03:46:08;;;;;;;8.27;2.20;;;;;;;;;;5055100;28;20127;-70
2022/10/09 03:48:34;;;;;;;5.20;2.17;;;;;;;;;;5054940;28;20091;-70
2022/10/09 03:51:00;;;;;;;4.95;2.55;;;;;;;;;;5055834;28;20049;-70
2022/10/09 03:53:26;;;;;;;3.95;2.05;;;;;;;;;;5055910;28;20068;-69
2022/10/09 03:55:53;;;;;;;7.93;2.25;;;;;;;;;;5056672;28;20116;-70
2022/10/09 03:58:19;;;;;;;7.75;3.00;;;;;;;;;;5072661;28;20056;-69
2022/10/09 04:00:45;;;;;;;6.88;2.17;;;;;;;;;;5072452;28;20187;-70
2022/10/09 04:03:11;;;;;;;5.93;1.92;;;;;;;;;;5071633;28;20099;-69
2022/10/09 04:05:37;;;;;;;6.40;2.05;;;;;;;;;;5055513;28;20156;-70
2022/10/09 04:08:04;;;;;;;4.07;2.08;;;;;;;;;;5056116;28;20041;-70
2022/10/09 04:10:30;;;;;;;6.15;2.20;;;;;;;;;;5071461;28;20052;-70
2022/10/09 04:12:56;;;;;;;8.48;2.08;;;;;;;;;;5056312;28;21123;-70
2022/10/09 04:15:22;;;;;;;4.88;2.10;;;;;;;;;;5053884;28;20096;-70
2022/10/09 04:17:48;;;;;;;10.13;3.50;;;;;;;;;;5071631;28;20071;-70
2022/10/09 04:20:15;;;;;;;7.93;2.00;;;;;;;;;;5055829;28;20042;-69
2022/10/09 04:22:41;;;;;;;7.40;2.95;;;;;;;;;;5055810;28;20908;-70
2022/10/09 04:25:07;;;;;;;5.35;2.53;;;;;;;;;;5064243;28;20561;-70
2022/10/09 04:27:33;;;;;;;8.55;2.60;;;;;;;;;;5072358;28;20052;-70
2022/10/09 04:29:59;;;;;;;5.63;2.38;;;;;;;;;;5070316;28;20053;-69
2022/10/09 04:32:25;;;;;;;7.13;2.70;;;;;;;;;;5071368;28;20041;-70
2022/10/09 04:34:51;;;;;;;8.40;2.92;;;;;;;;;;5067236;28;20029;-70
2022/10/09 04:37:17;;;;;;;5.05;2.65;;;;;;;;;;5066473;28;20065;-70
2022/10/09 04:39:43;;;;;;;5.45;2.40;;;;;;;;;;5067059;28;20219;-70
2022/10/09 04:42:09;;;;;;;4.53;2.20;;;;;;;;;;5055296;28;20070;-69
2022/10/09 04:44:35;;;;;;;5.65;2.40;;;;;;;;;;5066200;28;20183;-70
2022/10/09 04:47:01;;;;;;;9.68;2.55;;;;;;;;;;5058694;28;20094;-70
2022/10/09 04:49:27;;;;;;;4.50;2.17;;;;;;;;;;5064896;28;20045;-70
2022/10/09 04:51:53;;;;;;;5.18;1.83;;;;;;;;;;5070604;28;20538;-70
2022/10/09 04:54:19;;;;;;;5.18;2.35;;;;;;;;;;5068261;28;20049;-69
2022/10/09 04:56:45;;;;;;;6.25;2.38;;;;;;;;;;5056303;28;20531;-70
2022/10/09 04:59:12;;;;;;;5.60;2.80;;;;;;;;;;5054671;28;20044;-70
2022/10/09 05:01:38;;;;;;;6.80;2.67;;;;;;;;;;5054355;28;20690;-69
2022/10/09 05:04:04;;;;;;;8.40;3.47;;;;;;;;;;5055944;28;20041;-70
2022/10/09 05:06:30;;;;;;;5.28;2.78;;;;;;;;;;5055975;28;20045;-70
2022/10/09 05:08:56;;;;;;;6.32;2.47;;;;;;;;;;5054304;28;21185;-70
2022/10/09 05:11:24;;;;;;;6.10;3.70;;;;;;;;;;5071583;28;20132;-70
2022/10/09 05:13:51;;;;;;;4.47;2.20;;;;;;;;;;5055796;28;20567;-70
2022/10/09 05:16:19;;;;;;;7.47;2.50;;;;;;;;;;5055037;28;20041;-69
2022/10/09 05:18:50;;;;;;;14.13;3.08;;;;;;;;;;5072169;28;20049;-70
2022/10/09 05:21:17;;;;;;;4.43;2.13;;;;;;;;;;5071139;28;20037;-69
2022/10/09 05:23:43;;;;;;;4.75;2.05;;;;;;;;;;5052707;28;20057;-69
2022/10/09 05:26:11;;;;;;;4.25;2.65;;;;;;;;;;5049935;28;20045;-69
2022/10/09 05:28:37;;;;;;;4.43;2.45;;;;;;;;;;5068259;28;20549;-69
2022/10/09 05:31:04;;;;;;;6.55;2.53;;;;;;;;;;5050018;28;20143;-69
2022/10/09 05:33:30;;;;;;;6.75;2.78;;;;;;;;;;5067441;28;20044;-70
2022/10/09 05:35:57;;;;;;;8.68;3.78;;;;;;;;;;5050732;28;20052;-70
2022/10/09 05:38:24;;;;;;;23.23;4.18;;;;;;;;;;5049820;28;20041;-69
2022/10/09 05:40:51;;;;;;;4.10;2.10;;;;;;;;;;5050247;28;20041;-70
2022/10/09 05:43:17;;;;;;;8.38;2.67;;;;;;;;;;5067501;28;20030;-69
2022/10/09 05:45:43;;;;;;;6.30;2.85;;;;;;;;;;5051494;28;20052;-70
2022/10/09 05:48:09;;;;;;;6.97;2.83;;;;;;;;;;5063303;28;20132;-70
2022/10/09 05:50:36;;;;;;;6.93;2.30;;;;;;;;;;5064863;28;20120;-69
2022/10/09 05:53:02;;;;;;;6.95;2.53;;;;;;;;;;5069763;28;20033;-70
2022/10/09 05:55:28;;;;;;;5.07;2.47;;;;;;;;;;5052184;28;20542;-70
2022/10/09 05:57:54;;;;;;;3.17;2.22;;;;;;;;;;5073207;28;20082;-70
2022/10/09 06:00:20;;;;;;;6.00;2.20;;;;;;;;;;5052647;28;20037;-70
2022/10/09 06:02:46;;;;;;;24.02;3.00;;;;;;;;;;5053407;28;20045;-69
2022/10/09 06:05:12;;;;;;;6.07;2.45;;;;;;;;;;5055564;28;20076;-69
2022/10/09 06:07:38;;;;;;;6.50;2.58;;;;;;;;;;5068091;28;20049;-69
2022/10/09 06:10:04;;;;;;;6.20;2.80;;;;;;;;;;5066857;28;20154;-69
2022/10/09 06:12:31;;;;;;;6.43;2.67;;;;;;;;;;5051150;28;20144;-69
2022/10/09 06:14:57;;;;;;;6.10;2.47;;;;;;;;;;5051887;28;20037;-69
2022/10/09 06:17:23;;;;;;;6.35;2.00;;;;;;;;;;5050874;28;20076;-70
2022/10/09 06:19:49;;;;;;;4.82;2.83;;;;;;;;;;5068303;28;20045;-69
2022/10/09 06:22:16;;;;;;;6.15;2.10;;;;;;;;;;5044291;28;20032;-69
2022/10/09 06:24:42;;;;;;;4.53;2.17;;;;;;;;;;5053161;28;20057;-70
2022/10/09 06:27:09;;;;;;;8.27;2.70;;;;;;;;;;5070038;28;20494;-69
2022/10/09 06:29:36;;;;;;;14.98;3.28;;;;;;;;;;5055967;28;20041;-69
2022/10/09 06:32:02;;;;;;;9.18;2.72;;;;;;;;;;5052904;28;20052;-70
2022/10/09 06:34:28;;;;;;;4.13;3.00;;;;;;;;;;5069619;28;20609;-72
2022/10/09 06:36:54;;;;;;;4.55;2.42;;;;;;;;;;5071506;28;20116;-70
2022/10/09 06:39:21;;;;;;;8.82;3.00;;;;;;;;;;5071990;28;20090;-70
2022/10/09 06:41:47;;;;;;;6.93;2.50;;;;;;;;;;5055756;28;20040;-70
2022/10/09 06:44:15;;;;;;;4.20;2.47;;;;;;;;;;5072501;28;20049;-70
2022/10/09 06:46:42;;;;;;;7.13;2.80;;;;;;;;;;5056385;28;20160;-69
2022/10/09 06:49:09;;;;;;;20.42;3.72;;;;;;;;;;5056938;28;20664;-70
2022/10/09 06:51:36;;;;;;;8.90;2.13;;;;;;;;;;5055789;28;20570;-69
2022/10/09 06:54:03;;;;;;;4.07;3.08;;;;;;;;;;5057813;28;20041;-70
2022/10/09 06:56:30;;;;;;;8.80;2.45;;;;;;;;;;5069157;28;20045;-69
2022/10/09 06:58:59;;;;;;;4.82;2.80;;;;;;;;;;5056108;28;20145;-69
2022/10/09 07:01:26;;;;;;;6.60;2.60;;;;;;;;;;5056106;28;20053;-69
2022/10/09 07:03:59;;;;;;;4.95;2.45;;;;;;;;;;5054209;28;20045;-70
2022/10/09 07:06:29;;;;;;;7.85;2.72;;;;;;;;;;5069379;28;21156;-70
2022/10/09 07:09:00;;;;;;;8.60;2.88;;;;;;;;;;5072738;28;20045;-69
2022/10/09 07:11:31;;;;;;;4.55;2.78;;;;;;;;;;5054792;28;20182;-70
2022/10/09 07:13:58;;;;;;;7.38;3.20;;;;;;;;;;5056445;28;20742;-71
2022/10/09 07:16:26;;;;;;;7.78;3.03;;;;;;;;;;5050039;28;20128;-69
2022/10/09 07:18:52;;;;;;;7.05;4.18;;;;;;;;;;5061704;28;20029;-69
2022/10/09 07:21:19;;;;;;;5.00;2.97;;;;;;;;;;5054960;28;20052;-70
2022/10/09 07:23:52;;;;;;;7.10;2.90;;;;;;;;;;5072353;28;20103;-77
2022/10/09 07:26:29;;;;;;;7.53;3.60;;;;;;;;;;5071925;28;20053;-76
2022/10/09 07:28:55;;;;;;;9.73;3.05;;;;;;;;;;5072071;28;20573;-69
2022/10/09 07:31:21;;;;;;;7.65;3.25;;;;;;;;;;5059509;28;20127;-70
2022/10/09 07:33:51;;;;;;;7.35;3.97;;;;;;;;;;5059810;28;20043;-70
2022/10/09 07:36:17;;;;;;;7.82;3.70;;;;;;;;;;5058655;28;21121;-70
2022/10/09 07:38:43;;;;;;;9.32;3.20;;;;;;;;;;5074273;28;20052;-70
2022/10/09 07:41:10;;;;;;;6.53;4.03;;;;;;;;;;5057645;28;20033;-71
2022/10/09 07:43:38;;;;;;;6.30;2.97;;;;;;;;;;5057573;28;20045;-69
2022/10/09 07:46:05;;;;;;;5.78;4.30;;;;;;;;;;5073402;28;20044;-69
2022/10/09 07:48:31;;;;;;;4.53;2.92;;;;;;;;;;5074322;28;20033;-69
2022/10/09 07:50:57;;;;;;;8.15;3.83;;;;;;;;;;5055848;28;20594;-69
2022/10/09 07:53:23;;;;;;;5.50;2.85;;;;;;;;;;5056059;28;20048;-69
2022/10/09 07:55:50;;;;;;;6.05;3.08;;;;;;;;;;5054916;28;20037;-70
2022/10/09 07:58:16;;;;;;;5.60;3.00;;;;;;;;;;5068843;28;20084;-70
2022/10/09 08:00:43;;;;;;;9.65;3.17;;;;;;;;;;5053780;28;20132;-69
2022/10/09 08:03:10;;;;;;;6.97;2.75;;;;;;;;;;5054743;28;20045;-69
2022/10/09 08:05:36;;;;;;;8.43;4.25;;;;;;;;;;5067988;28;20060;-70
2022/10/09 08:08:02;;;;;;;8.07;3.53;;;;;;;;;;5069441;28;20051;-71
2022/10/09 08:10:31;;;;;;;7.90;3.53;;;;;;;;;;5052055;28;20095;-70
2022/10/09 08:12:57;;;;;;;8.00;3.58;;;;;;;;;;5050475;28;20135;-70
2022/10/09 08:15:24;;;;;;;8.10;3.80;;;;;;;;;;5047793;28;20091;-76
2022/10/09 08:17:52;;;;;;;7.43;3.38;;;;;;;;;;5045374;28;20040;-70
2022/10/09 08:20:18;;;;;;;8.15;2.08;;;;;;;;;;5053033;28;20471;-70
2022/10/09 08:22:44;;;;;;;4.15;3.25;;;;;;;;;;5065157;28;20052;-70
2022/10/09 08:25:10;;;;;;;7.30;2.70;;;;;;;;;;5049881;28;20123;-70
2022/10/09 08:27:36;;;;;;;8.60;2.85;;;;;;;;;;5063909;28;20048;-70
2022/10/09 08:30:03;;;;;;;6.30;3.10;;;;;;;;;;5069060;28;20048;-70
2022/10/09 08:32:29;;;;;;;4.60;2.65;;;;;;;;;;5055539;28;20041;-70
2022/10/09 08:34:55;;;;;;;5.85;2.78;;;;;;;;;;5054576;28;20044;-70
2022/10/09 08:37:22;;;;;;;6.68;2.40;;;;;;;;;;5070221;28;20041;-70
2022/10/09 08:39:48;;;;;;;3.47;2.08;;;;;;;;;;5054424;28;20375;-70
2022/10/09 08:42:28;;;;;;;5.78;3.70;;;;;;;;;;5053504;28;20045;-70
2022/10/09 08:44:54;;;;;;;5.35;2.78;;;;;;;;;;5054829;28;20045;-70
2022/10/09 08:47:20;;;;;;;5.68;2.58;;;;;;;;;;5054109;28;20128;-69
2022/10/09 08:49:52;;;;;;;4.38;2.22;;;;;;;;;;5071667;28;20067;-70
2022/10/09 08:52:34;;;;;;;6.25;2.50;;;;;;;;;;5056317;28;20069;-70
2022/10/09 08:55:04;;;;;;;6.73;2.33;;;;;;;;;;5070307;28;20130;-70
2022/10/09 08:57:31;;;;;;;4.78;2.53;;;;;;;;;;5071029;28;20048;-70
2022/10/09 08:59:57;;;;;;;9.20;3.45;;;;;;;;;;5056543;28;20045;-69
2022/10/09 09:02:24;;;;;;;5.88;2.33;;;;;;;;;;5054810;28;20052;-70
2022/10/09 09:04:58;;;;;;;4.57;2.17;;;;;;;;;;5056996;28;20095;-70
2022/10/09 09:07:33;;;;;;;7.60;2.17;;;;;;;;;;5053135;28;21249;-70
2022/10/09 09:10:05;;;;;;;4.53;2.42;;;;;;;;;;5068091;28;20041;-70
2022/10/09 09:12:34;;;;;;;4.78;1.70;;;;;;;;;;5057428;28;20490;-70
2022/10/09 09:15:19;;;;;;;9.43;3.72;;;;;;;;;;5055213;28;20049;-69
2022/10/09 09:17:53;;;;;;;4.07;2.28;;;;;;;;;;5073170;28;20048;-69
2022/10/09 09:20:35;;;;;;;4.95;2.63;;;;;;;;;;5070663;28;20053;-70
2022/10/09 09:23:01;;;;;;;;;;;;;;;;;;5063153;28;20052;-69
2022/10/09 09:25:34;;;;;;;5.82;2.30;;;;;;;;;;5071068;28;20038;-69
2022/10/09 09:28:09;;;;;;;7.00;2.03;;;;;;;;;;5055160;28;20498;-69
2022/10/09 09:30:37;;;;;;;4.35;2.17;;;;;;;;;;5057093;28;20729;-71
2022/10/09 09:33:15;;;;;;;6.50;2.45;;;;;;;;;;5067071;28;20037;-70
2022/10/09 09:36:00;;;;;;;5.82;2.28;;;;;;;;;;5056838;28;20053;-70
2022/10/09 09:38:26;;;;;;;4.97;1.83;;;;;;;;;;5046451;28;20048;-70
2022/10/09 09:40:52;;;;;;;5.07;2.50;;;;;;;;;;5056864;28;20041;-69
2022/10/09 09:43:20;;;;;;;6.05;2.80;;;;;;;;;;5070332;28;20041;-70
2022/10/09 09:45:47;;;;;;;5.75;3.00;;;;;;;;;;5053357;28;20118;-69
2022/10/09 09:48:20;;;;;;;8.65;2.63;;;;;;;;;;5058411;28;20040;-77
2022/10/09 09:50:51;;;;;;;3.78;2.10;;;;;;;;;;5069417;28;20053;-70
2022/10/09 09:53:44;;;;;;;5.97;1.70;;;;;;;;;;5051818;28;20514;-74
2022/10/09 09:56:10;;;;;;;5.57;2.38;;;;;;;;;;5051091;28;20057;-70
2022/10/09 09:58:38;;;;;;;12.63;2.33;;;;;;;;;;5068137;28;20075;-72
2022/10/09 10:01:05;;;;;;;4.22;2.25;;;;;;;;;;5066008;28;20086;-70
2022/10/09 10:03:33;;;;;;;4.70;3.33;;;;;;;;;;5069310;28;20037;-69
2022/10/09 10:05:59;;;;;;;7.70;4.43;;;;;;;;;;5067339;28;20080;-76
2022/10/09 10:08:27;;;;;;;18.42;10.02;;;;;;;;;;5070716;28;20144;-72
2022/10/09 10:11:15;;;;;;;7.95;3.00;;;;;;;;;;5053489;28;20040;-79
2022/10/09 10:13:48;;;;;;;7.03;3.45;;;;;;;;;;5053321;28;20068;-72
2022/10/09 10:16:23;;;;;;;4.97;2.70;;;;;;;;;;5067577;28;20049;-73
2022/10/09 10:18:50;;;;;;;12.00;2.63;;;;;;;;;;5069307;28;20045;-80
2022/10/09 10:21:17;;;;;;;6.57;2.60;;;;;;;;;;5070777;28;20055;-72
2022/10/09 10:23:45;;;;;;;6.50;2.83;;;;;;;;;;5051743;28;20441;-73
2022/10/09 10:26:36;;;;;;;5.95;2.10;;;;;;;;;;5054100;28;20064;-78
2022/10/09 10:29:20;;;;;;;4.38;1.88;;;;;;;;;;5073708;28;20049;-78
2022/10/09 10:31:50;;;;;;;6.32;2.28;;;;;;;;;;5050015;28;20068;-70
2022/10/09 10:34:19;;;;;;;7.47;2.20;;;;;;;;;;5051119;28;20037;-70
2022/10/09 10:36:52;;;;;;;4.15;2.95;;;;;;;;;;5065124;28;20056;-75
2022/10/09 10:39:23;;;;;;;4.15;3.25;;;;;;;;;;5054169;28;20056;-70
2022/10/09 10:41:51;;;;;;;6.15;2.33;;;;;;;;;;5070799;28;20550;-69
2022/10/09 10:44:37;;;;;;;3.83;2.25;;;;;;;;;;5069860;28;20514;-69
2022/10/09 10:47:05;;;;;;;9.55;2.28;;;;;;;;;;5070725;28;20554;-73
2022/10/09 10:49:31;;;;;;;3.47;1.95;;;;;;;;;;5071294;28;20047;-72
2022/10/09 10:51:58;;;;;;;7.07;2.65;;;;;;;;;;5061514;28;20041;-69
2022/10/09 10:54:41;;;;;;;6.32;1.80;;;;;;;;;;5071929;28;20087;-70
2022/10/09 10:57:10;;;;;;;6.05;2.70;;;;;;;;;;5070392;28;20115;-70
2022/10/09 10:59:55;;;;;;;6.30;2.38;;;;;;;;;;5069115;28;20052;-70
2022/10/09 11:02:40;;;;;;;2.97;1.65;;;;;;;;;;5054626;28;20053;-68
2022/10/09 11:05:19;;;;;;;6.43;2.30;;;;;;;;;;5056722;28;20049;-69
2022/10/09 11:07:45;;;;;;;4.63;2.00;;;;;;;;;;5055908;28;20822;-70
2022/10/09 11:10:23;;;;;;;4.43;2.13;;;;;;;;;;5057887;28;20569;-70
2022/10/09 11:12:51;;;;;;;6.35;2.08;;;;;;;;;;5057122;28;20854;-69
2022/10/09 11:15:26;;;;;;;6.05;1.60;;;;;;;;;;5058740;28;20040;-70
2022/10/09 11:18:05;;;;;;;5.88;2.33;;;;;;;;;;5074180;28;20095;-69
2022/10/09 11:20:43;;;;;;;6.00;2.95;;;;;;;;;;5057606;28;20041;-69
2022/10/09 11:23:32;;;;;;;3.42;1.42;;;;;;;;;;5055483;28;20095;-69
2022/10/09 11:26:07;;;;;;;3.65;1.13;;;;;;;;;;5073363;28;20075;-70
2022/10/09 11:28:37;;;;;;;3.60;2.08;;;;;;;;;;5074775;28;20056;-70
2022/10/09 11:31:15;;;;;;;4.57;2.70;;;;;;;;;;5058884;28;20064;-70
2022/10/09 11:33:47;;;;;;;3.75;1.55;;;;;;;;;;5057416;28;20116;-69
2022/10/09 11:36:13;;;;;;;4.63;1.40;;;;;;;;;;5073056;28;20037;-71
2022/10/09 11:38:43;;;;;;;4.18;1.40;;;;;;;;;;5064094;28;20531;-69
2022/10/09 11:41:10;;;;;;;3.40;1.52;;;;;;;;;;5056031;28;20127;-70
2022/10/09 11:43:54;;;;;;;7.90;1.73;;;;;;;;;;5056474;28;20083;-70
2022/10/09 11:46:39;;;;;;;4.55;2.45;;;;;;;;;;5057664;28;20037;-69
2022/10/09 11:49:10;;;;;;;3.78;1.75;;;;;;;;;;5056512;28;20130;-69
2022/10/09 11:51:49;;;;;;;3.15;1.33;;;;;;;;;;5056735;28;20052;-70
2022/10/09 11:54:20;;;;;;;3.13;1.30;;;;;;;;;;5056752;28;20041;-70
2022/10/09 11:56:56;;;;;;;4.07;1.33;;;;;;;;;;5065269;28;20575;-70
2022/10/09 11:59:24;;;;;;;1.27;1.02;;;;;;;;;;5073015;28;20048;-70
2022/10/09 12:01:51;;;;;;;4.75;2.25;;;;;;;;;;5071282;28;20900;-69
2022/10/09 12:04:22;;;;;;;3.88;0.90;;;;;;;;;;5056854;28;20071;-69
2022/10/09 12:06:53;;;;;;;3.00;1.10;;;;;;;;;;5056671;28;20422;-70
2022/10/09 12:09:22;;;;;;;2.70;1.38;;;;;;;;;;5056289;28;20598;-70
2022/10/09 12:12:14;;;;;;;3.10;1.50;;;;;;;;;;5056881;28;20601;-69
2022/10/09 12:14:42;;;;;;;3.67;1.38;;;;;;;;;;5056192;28;20555;-69
2022/10/09 12:17:15;;;;;;;3.28;0.98;;;;;;;;;;5050295;28;20469;-69
2022/10/09 12:19:41;;;;;;;2.17;1.15;;;;;;;;;;5056932;28;20073;-70
2022/10/09 12:22:19;;;;;;;3.53;1.38;;;;;;;;;;5056918;28;20080;-70
2022/10/09 12:24:48;;;;;;;3.60;1.70;;;;;;;;;;5055633;28;20041;-69
2022/10/09 12:27:24;;;;;;;5.28;1.25;;;;;;;;;;5073400;28;20132;-70
2022/10/09 12:29:54;;;;;;;3.70;1.60;;;;;;;;;;5057478;28;20088;-70
2022/10/09 12:32:26;;;;;;;4.20;1.65;;;;;;;;;;5058376;28;20037;-69
2022/10/09 12:34:53;;;;;;;3.60;1.65;;;;;;;;;;5056685;28;20040;-70
2022/10/09 12:37:20;;;;;;;4.38;1.85;;;;;;;;;;5056847;28;20541;-69
2022/10/09 12:39:47;;;;;;;4.13;2.67;;;;;;;;;;5054872;28;20053;-69
2022/10/09 12:42:18;;;;;;;4.03;2.60;;;;;;;;;;5057953;28;20045;-69
2022/10/09 12:44:44;;;;;;;3.42;2.25;;;;;;;;;;5055231;28;20361;-69
2022/10/09 12:47:20;;;;;;;3.92;2.05;;;;;;;;;;5056907;28;20044;-70
2022/10/09 12:50:05;;;;;;;3.72;1.60;;;;;;;;;;5055621;28;20526;-70
2022/10/09 12:52:31;;;;;;;6.05;1.50;;;;;;;;;;5055258;28;20064;-71
2022/10/09 12:54:57;;;;;;;8.90;1.42;;;;;;;;;;5071273;28;20041;-69
2022/10/09 12:57:25;;;;;;;1.85;1.38;;;;;;;;;;5057192;28;20038;-69
2022/10/09 12:59:53;;;;;;;7.15;2.25;;;;;;;;;;5055125;28;20049;-69
2022/10/09 13:02:20;;;;;;;5.85;1.90;;;;;;;;;;5072391;28;20044;-70
2022/10/09 13:04:57;;;;;;;3.78;2.55;;;;;;;;;;5062668;28;20518;-70
2022/10/09 13:07:25;;;;;;;4.93;2.42;;;;;;;;;;5072040;28;20471;-70
2022/10/09 13:09:57;;;;;;;5.55;2.95;;;;;;;;;;5057046;28;20139;-69
2022/10/09 13:12:23;;;;;;;;;;;;;;;;;;5055987;28;20048;-70
2022/10/09 13:14:56;;;;;;;2.42;1.35;;;;;;;;;;5055077;28;19920;-69
2022/10/09 13:17:36;;;;;;;4.97;1.98;;;;;;;;;;5057297;28;20932;-70
2022/10/09 13:20:22;;;;;;;5.20;2.25;;;;;;;;;;5055157;28;20049;-69
2022/10/09 13:22:53;;;;;;;3.20;1.60;;;;;;;;;;5055252;28;20055;-69
2022/10/09 13:25:19;;;;;;;4.47;1.75;;;;;;;;;;5054151;28;20612;-69
2022/10/09 13:27:45;;;;;;;4.70;2.83;;;;;;;;;;5049055;28;20041;-69
2022/10/09 13:30:11;;;;;;;11.48;3.90;;;;;;;;;;5069328;28;20531;-69
2022/10/09 13:32:37;;;;;;;7.57;4.00;;;;;;;;;;5072049;28;20584;-69
2022/10/09 13:35:04;;;;;;;6.72;3.53;;;;;;;;;;5068054;28;20044;-69
2022/10/09 13:37:30;;;;;;;3.65;1.98;;;;;;;;;;5072858;28;20041;-70
2022/10/09 13:39:57;;;;;;;6.25;2.63;;;;;;;;;;5054563;28;20045;-69
2022/10/09 13:42:25;;;;;;;6.47;1.77;;;;;;;;;;5056998;28;20041;-69
2022/10/09 13:44:51;;;;;;;4.65;1.77;;;;;;;;;;5055737;28;20040;-69
2022/10/09 13:47:17;;;;;;;3.97;1.98;;;;;;;;;;5072155;28;20120;-69
2022/10/09 13:49:43;;;;;;;2.70;1.83;;;;;;;;;;5067439;28;20527;-70
2022/10/09 13:52:10;;;;;;;4.97;2.13;;;;;;;;;;5066881;28;20044;-70
2022/10/09 13:54:36;;;;;;;4.28;2.55;;;;;;;;;;5059799;28;20115;-69
2022/10/09 13:57:02;;;;;;;3.55;2.22;;;;;;;;;;5068259;28;20045;-70
2022/10/09 13:59:31;;;;;;;4.85;1.88;;;;;;;;;;5055763;28;20055;-71
2022/10/09 14:01:58;;;;;;;2.58;1.30;;;;;;;;;;5055864;28;20128;-73
2022/10/09 14:04:24;;;;;;;3.50;1.63;;;;;;;;;;5051091;28;20053;-72
2022/10/09 14:07:01;;;;;;;;;;;;;;;;;;;;;
2022/10/09 14:09:27;;;;;;;4.40;1.80;;;;;;;;;;5051218;28;43989;-69
2022/10/09 14:11:53;;;;;;;4.50;2.30;;;;;;;;;;5051986;28;20072;-70
2022/10/09 14:14:21;;;;;;;4.57;2.67;;;;;;;;;;5070610;28;20043;-70
2022/10/09 14:16:48;;;;;;;5.03;1.73;;;;;;;;;;5057252;28;20718;-70
2022/10/09 14:19:14;;;;;;;8.15;3.75;;;;;;;;;;5070742;28;20470;-70
2022/10/09 14:21:40;;;;;;;5.22;1.90;;;;;;;;;;5057749;28;20048;-70
2022/10/09 14:24:06;;;;;;;4.35;2.22;;;;;;;;;;5069206;28;20243;-70
2022/10/09 14:26:33;;;;;;;6.28;2.95;;;;;;;;;;5053125;28;20083;-70
2022/10/09 14:29:03;;;;;;;4.50;2.95;;;;;;;;;;5054279;28;20049;-74
2022/10/09 14:31:30;;;;;;;12.82;4.75;;;;;;;;;;5053681;28;20060;-72
2022/10/09 14:34:28;;;;;;;4.38;2.65;;;;;;;;;;5062078;28;20076;-72
2022/10/09 14:37:13;;;;;;;3.97;2.10;;;;;;;;;;5054431;28;20041;-79
2022/10/09 14:39:42;;;;;;;4.10;1.63;;;;;;;;;;5067204;28;20071;-71
2022/10/09 14:42:08;;;;;;;12.43;3.65;;;;;;;;;;5055261;28;20033;-71
2022/10/09 14:44:34;;;;;;;26.20;13.68;;;;;;;;;;5053472;28;20106;-71
2022/10/09 14:47:00;;;;;;;27.23;12.68;;;;;;;;;;5068090;28;20048;-72
2022/10/09 14:49:27;;;;;;;16.55;10.10;;;;;;;;;;5055545;28;20045;-71
2022/10/09 14:51:53;;;;;;;13.77;8.52;;;;;;;;;;5069454;28;20056;-71
2022/10/09 14:54:19;;;;;;;12.25;5.43;;;;;;;;;;5052097;28;20033;-70